createdAt,value
2017-02-01T00:00:29.244Z,0
2017-02-01T00:01:40.848Z,0
2017-02-01T00:02:52.498Z,0
2017-02-01T00:04:03.898Z,0
2017-02-01T00:05:15.510Z,0
2017-02-01T00:06:26.910Z,0
2017-02-01T00:07:38.312Z,0
2017-02-01T00:08:49.773Z,0
2017-02-01T00:10:01.383Z,0
2017-02-01T00:11:12.791Z,0
2017-02-01T00:12:24.194Z,0
2017-02-01T00:13:35.795Z,0
2017-02-01T00:14:47.248Z,0
2017-02-01T00:15:58.858Z,0
2017-02-01T00:17:10.277Z,0
2017-02-01T00:18:21.674Z,0
2017-02-01T00:19:33.071Z,0
2017-02-01T00:20:44.530Z,0
2017-02-01T00:21:55.934Z,0
2017-02-01T00:23:07.341Z,0
2017-02-01T00:24:18.944Z,0
2017-02-01T00:25:30.547Z,0
2017-02-01T00:26:42.007Z,0
2017-02-01T00:27:53.609Z,0
2017-02-01T00:29:05.019Z,0
2017-02-01T00:30:16.628Z,0
2017-02-01T00:31:28.038Z,0
2017-02-01T00:32:39.493Z,0
2017-02-01T00:33:50.901Z,0
2017-02-01T00:35:02.297Z,0
2017-02-01T00:36:13.694Z,0
2017-02-01T00:37:25.099Z,0
2017-02-01T00:38:36.556Z,0
2017-02-01T00:39:47.962Z,0
2017-02-01T00:40:59.365Z,0
2017-02-01T00:42:10.764Z,0
2017-02-01T00:43:22.170Z,0
2017-02-01T00:44:33.625Z,0
2017-02-01T00:45:45.044Z,0
2017-02-01T00:46:56.654Z,0
2017-02-01T00:48:08.057Z,0
2017-02-01T00:49:19.460Z,0
2017-02-01T00:50:30.915Z,0
2017-02-01T00:51:42.716Z,0
2017-02-01T00:52:54.129Z,0
2017-02-01T00:54:05.530Z,0
2017-02-01T00:55:16.937Z,0
2017-02-01T00:56:28.391Z,0
2017-02-01T00:57:39.800Z,0
2017-02-01T00:58:51.209Z,0
2017-02-01T01:00:02.845Z,0
2017-02-01T01:01:14.256Z,0
2017-02-01T01:02:25.711Z,0
2017-02-01T01:03:37.119Z,0
2017-02-01T01:04:48.519Z,0
2017-02-01T01:05:59.921Z,0
2017-02-01T01:07:11.529Z,0
2017-02-01T01:08:22.995Z,0
2017-02-01T01:09:34.401Z,0
2017-02-01T01:10:45.807Z,0
2017-02-01T01:11:57.221Z,0
2017-02-01T01:13:08.624Z,0
2017-02-01T01:14:20.072Z,0
2017-02-01T01:15:31.479Z,0
2017-02-01T01:16:43.091Z,0
2017-02-01T01:17:54.495Z,0
2017-02-01T01:19:06.092Z,0
2017-02-01T01:20:17.566Z,0
2017-02-01T01:21:28.974Z,0
2017-02-01T01:22:40.373Z,0
2017-02-01T01:23:51.773Z,0
2017-02-01T01:25:03.378Z,0
2017-02-01T01:26:14.842Z,0
2017-02-01T01:27:26.240Z,0
2017-02-01T01:28:37.648Z,0
2017-02-01T01:29:49.051Z,0
2017-02-01T01:31:00.459Z,0
2017-02-01T01:32:11.922Z,0
2017-02-01T01:33:23.334Z,0
2017-02-01T01:34:34.729Z,0
2017-02-01T01:35:46.128Z,0
2017-02-01T01:36:57.545Z,0
2017-02-01T01:38:08.999Z,0
2017-02-01T01:39:20.595Z,0
2017-02-01T01:40:32.022Z,0
2017-02-01T01:41:43.465Z,0
2017-02-01T01:42:55.077Z,0
2017-02-01T01:44:06.529Z,0
2017-02-01T01:45:18.340Z,0
2017-02-01T01:46:30.144Z,0
2017-02-01T01:47:41.550Z,0
2017-02-01T01:48:52.960Z,0
2017-02-01T01:50:04.422Z,0
2017-02-01T01:51:15.829Z,0
2017-02-01T01:52:27.235Z,0
2017-02-01T01:53:38.835Z,0
2017-02-01T01:54:50.243Z,0
2017-02-01T01:56:01.694Z,0
2017-02-01T01:57:13.100Z,0
2017-02-01T01:58:24.493Z,0
2017-02-01T01:59:36.096Z,0
2017-02-01T02:00:47.897Z,0
2017-02-01T02:01:59.393Z,0
2017-02-01T02:03:11.001Z,0
2017-02-01T02:04:22.396Z,0
2017-02-01T02:05:34.004Z,0
2017-02-01T02:06:45.406Z,0
2017-02-01T02:07:56.859Z,0
2017-02-01T02:09:08.462Z,0
2017-02-01T02:10:19.863Z,0
2017-02-01T02:11:31.268Z,0
2017-02-01T02:12:42.676Z,0
2017-02-01T02:13:54.134Z,0
2017-02-01T02:15:05.750Z,0
2017-02-01T02:16:17.360Z,0
2017-02-01T02:17:28.760Z,0
2017-02-01T02:18:40.162Z,0
2017-02-01T02:19:51.620Z,0
2017-02-01T02:21:03.057Z,0
2017-02-01T02:22:14.468Z,0
2017-02-01T02:23:25.865Z,0
2017-02-01T02:24:37.278Z,0
2017-02-01T02:25:48.941Z,0
2017-02-01T02:27:00.343Z,0
2017-02-01T02:28:11.742Z,0
2017-02-01T02:29:23.146Z,0
2017-02-01T02:30:34.550Z,0
2017-02-01T02:31:46.009Z,0
2017-02-01T02:32:57.624Z,0
2017-02-01T02:34:09.035Z,0
2017-02-01T02:35:20.442Z,0
2017-02-01T02:36:31.848Z,0
2017-02-01T02:37:43.294Z,0
2017-02-01T02:38:54.694Z,0
2017-02-01T02:40:06.090Z,0
2017-02-01T02:41:17.496Z,0
2017-02-01T02:42:28.895Z,0
2017-02-01T02:43:40.356Z,0
2017-02-01T02:44:51.753Z,0
2017-02-01T02:46:03.162Z,0
2017-02-01T02:47:14.766Z,0
2017-02-01T02:48:26.165Z,0
2017-02-01T02:49:37.624Z,0
2017-02-01T02:50:49.025Z,0
2017-02-01T02:52:00.466Z,0
2017-02-01T02:53:11.881Z,0
2017-02-01T02:54:23.281Z,0
2017-02-01T02:55:34.928Z,0
2017-02-01T02:56:46.340Z,0
2017-02-01T02:57:58.151Z,0
2017-02-01T02:59:09.565Z,0
2017-02-01T03:00:20.985Z,0
2017-02-01T03:01:32.636Z,0
2017-02-01T03:02:44.041Z,0
2017-02-01T03:03:55.455Z,0
2017-02-01T03:05:06.863Z,0
2017-02-01T03:06:18.259Z,0
2017-02-01T03:07:29.913Z,0
2017-02-01T03:08:41.328Z,0
2017-02-01T03:09:52.765Z,0
2017-02-01T03:11:04.164Z,0
2017-02-01T03:12:15.565Z,0
2017-02-01T03:13:27.016Z,0
2017-02-01T03:14:38.421Z,0
2017-02-01T03:15:49.820Z,0
2017-02-01T03:17:01.238Z,0
2017-02-01T03:18:12.642Z,0
2017-02-01T03:19:24.099Z,0
2017-02-01T03:20:35.505Z,0
2017-02-01T03:21:46.916Z,0
2017-02-01T03:22:58.321Z,0
2017-02-01T03:24:09.727Z,0
2017-02-01T03:25:21.180Z,0
2017-02-01T03:26:32.577Z,0
2017-02-01T03:27:43.976Z,0
2017-02-01T03:28:55.381Z,0
2017-02-01T03:30:06.789Z,0
2017-02-01T03:31:18.241Z,0
2017-02-01T03:32:29.649Z,0
2017-02-01T03:33:41.254Z,0
2017-02-01T03:34:52.663Z,0
2017-02-01T03:36:04.074Z,0
2017-02-01T03:37:15.544Z,0
2017-02-01T03:38:26.943Z,0
2017-02-01T03:39:38.380Z,0
2017-02-01T03:40:49.783Z,0
2017-02-01T03:42:01.182Z,0
2017-02-01T03:43:12.632Z,0
2017-02-01T03:44:24.031Z,0
2017-02-01T03:45:35.435Z,0
2017-02-01T03:46:46.842Z,0
2017-02-01T03:47:58.243Z,0
2017-02-01T03:49:09.906Z,0
2017-02-01T03:50:21.312Z,0
2017-02-01T03:51:32.714Z,0
2017-02-01T03:52:44.315Z,0
2017-02-01T03:53:55.719Z,0
2017-02-01T03:55:07.173Z,0
2017-02-01T03:56:18.576Z,0
2017-02-01T03:57:30.174Z,0
2017-02-01T03:58:41.575Z,0
2017-02-01T03:59:52.984Z,0
2017-02-01T04:01:04.443Z,0
2017-02-01T04:02:15.847Z,0
2017-02-01T04:03:27.251Z,0
2017-02-01T04:04:38.867Z,0
2017-02-01T04:05:50.267Z,0
2017-02-01T04:07:01.716Z,0
2017-02-01T04:08:13.108Z,0
2017-02-01T04:09:24.512Z,0
2017-02-01T04:10:36.116Z,0
2017-02-01T04:11:47.729Z,0
2017-02-01T04:12:59.187Z,0
2017-02-01T04:14:10.590Z,0
2017-02-01T04:15:21.989Z,0
2017-02-01T04:16:33.386Z,0
2017-02-01T04:17:44.788Z,0
2017-02-01T04:18:56.444Z,0
2017-02-01T04:20:08.047Z,0
2017-02-01T04:21:19.449Z,0
2017-02-01T04:22:30.851Z,0
2017-02-01T04:23:42.291Z,0
2017-02-01T04:24:53.750Z,0
2017-02-01T04:26:05.350Z,0
2017-02-01T04:27:16.748Z,0
2017-02-01T04:28:28.151Z,0
2017-02-01T04:29:39.790Z,0
2017-02-01T04:30:51.248Z,0
2017-02-01T04:32:02.656Z,0
2017-02-01T04:33:14.271Z,0
2017-02-01T04:34:25.668Z,0
2017-02-01T04:35:37.094Z,0
2017-02-01T04:36:48.551Z,0
2017-02-01T04:37:59.954Z,0
2017-02-01T04:39:11.364Z,0
2017-02-01T04:40:22.770Z,0
2017-02-01T04:41:34.173Z,0
2017-02-01T04:42:45.626Z,0
2017-02-01T04:43:57.060Z,0
2017-02-01T04:45:08.487Z,0
2017-02-01T04:46:19.887Z,0
2017-02-01T04:47:31.292Z,0
2017-02-01T04:48:42.758Z,0
2017-02-01T04:49:54.161Z,0
2017-02-01T04:51:05.573Z,0
2017-02-01T04:52:16.983Z,0
2017-02-01T04:53:28.391Z,0
2017-02-01T04:54:39.843Z,0
2017-02-01T04:55:51.258Z,0
2017-02-01T04:57:02.669Z,0
2017-02-01T04:58:14.078Z,0
2017-02-01T04:59:25.685Z,0
2017-02-01T05:00:37.138Z,0
2017-02-01T05:01:48.746Z,0
2017-02-01T05:03:00.177Z,0
2017-02-01T05:04:11.584Z,0
2017-02-01T05:05:22.994Z,0
2017-02-01T05:06:34.449Z,0
2017-02-01T05:07:45.859Z,0
2017-02-01T05:08:57.258Z,0
2017-02-01T05:10:08.666Z,0
2017-02-01T05:11:20.068Z,0
2017-02-01T05:12:31.519Z,0
2017-02-01T05:13:42.916Z,0
2017-02-01T05:14:54.316Z,0
2017-02-01T05:16:05.721Z,0
2017-02-01T05:17:17.130Z,0
2017-02-01T05:18:28.582Z,0
2017-02-01T05:19:39.988Z,0
2017-02-01T05:20:51.393Z,0
2017-02-01T05:22:02.796Z,0
2017-02-01T05:23:14.203Z,0
2017-02-01T05:24:25.658Z,0
2017-02-01T05:25:37.058Z,0
2017-02-01T05:26:48.478Z,0
2017-02-01T05:27:59.887Z,0
2017-02-01T05:29:11.284Z,0
2017-02-01T05:30:22.740Z,0
2017-02-01T05:31:34.166Z,0
2017-02-01T05:32:45.569Z,0
2017-02-01T05:33:56.968Z,0
2017-02-01T05:35:08.365Z,0
2017-02-01T05:36:19.820Z,0
2017-02-01T05:37:31.223Z,0
2017-02-01T05:38:42.626Z,0
2017-02-01T05:39:54.036Z,0
2017-02-01T05:41:05.442Z,0
2017-02-01T05:42:16.896Z,0
2017-02-01T05:43:28.502Z,0
2017-02-01T05:44:39.900Z,0
2017-02-01T05:45:51.311Z,0
2017-02-01T05:47:02.720Z,0
2017-02-01T05:48:14.379Z,0
2017-02-01T05:49:25.979Z,0
2017-02-01T05:50:37.375Z,0
2017-02-01T05:51:48.786Z,0
2017-02-01T05:53:00.191Z,0
2017-02-01T05:54:11.645Z,0
2017-02-01T05:55:23.044Z,0
2017-02-01T05:56:34.448Z,0
2017-02-01T05:57:45.844Z,0
2017-02-01T05:58:57.259Z,0
2017-02-01T06:00:08.706Z,0
2017-02-01T06:01:20.316Z,0
2017-02-01T06:02:31.920Z,0
2017-02-01T06:03:43.525Z,0
2017-02-01T06:04:55.144Z,0
2017-02-01T06:06:06.595Z,0
2017-02-01T06:07:18.009Z,0
2017-02-01T06:08:29.419Z,0
2017-02-01T06:09:40.825Z,0
2017-02-01T06:10:52.232Z,0
2017-02-01T06:12:03.886Z,0
2017-02-01T06:13:15.288Z,0
2017-02-01T06:14:26.688Z,0
2017-02-01T06:15:38.094Z,0
2017-02-01T06:16:49.500Z,0
2017-02-01T06:18:00.954Z,0
2017-02-01T06:19:12.361Z,0
2017-02-01T06:20:23.759Z,0
2017-02-01T06:21:35.354Z,0
2017-02-01T06:22:46.756Z,0
2017-02-01T06:23:58.211Z,0
2017-02-01T06:25:09.616Z,0
2017-02-01T06:26:21.019Z,0
2017-02-01T06:27:32.428Z,0
2017-02-01T06:28:43.832Z,0
2017-02-01T06:29:55.288Z,0
2017-02-01T06:31:06.689Z,0
2017-02-01T06:32:18.097Z,0
2017-02-01T06:33:29.498Z,0
2017-02-01T06:34:41.097Z,0
2017-02-01T06:35:52.752Z,0
2017-02-01T06:37:04.362Z,0
2017-02-01T06:38:15.967Z,0
2017-02-01T06:39:27.373Z,0
2017-02-01T06:40:38.791Z,0
2017-02-01T06:41:50.240Z,0
2017-02-01T06:43:01.641Z,0
2017-02-01T06:44:13.043Z,0
2017-02-01T06:45:24.454Z,0
2017-02-01T06:46:35.855Z,0
2017-02-01T06:47:47.303Z,0
2017-02-01T06:48:58.707Z,0
2017-02-01T06:50:10.506Z,0
2017-02-01T06:51:21.911Z,0
2017-02-01T06:52:33.312Z,0
2017-02-01T06:53:44.765Z,0
2017-02-01T06:54:56.163Z,0
2017-02-01T06:56:07.573Z,0
2017-02-01T06:57:18.979Z,0
2017-02-01T06:58:30.381Z,0
2017-02-01T06:59:41.850Z,0
2017-02-01T07:00:53.266Z,0
2017-02-01T07:02:04.671Z,0
2017-02-01T07:03:16.071Z,0
2017-02-01T07:04:27.472Z,0
2017-02-01T07:05:38.928Z,0
2017-02-01T07:06:50.745Z,0
2017-02-01T07:08:02.145Z,0
2017-02-01T07:09:14.155Z,0
2017-02-01T07:10:25.560Z,0
2017-02-01T07:11:37.218Z,5
2017-02-01T07:12:48.632Z,5
2017-02-01T07:14:00.042Z,5
2017-02-01T07:15:11.445Z,5
2017-02-01T07:16:22.862Z,5
2017-02-01T07:17:34.314Z,5
2017-02-01T07:18:45.720Z,5
2017-02-01T07:19:57.129Z,10
2017-02-01T07:21:08.535Z,10
2017-02-01T07:22:19.944Z,10
2017-02-01T07:23:31.389Z,10
2017-02-01T07:24:42.795Z,10
2017-02-01T07:25:54.195Z,10
2017-02-01T07:27:05.799Z,10
2017-02-01T07:28:17.203Z,15
2017-02-01T07:29:28.654Z,15
2017-02-01T07:30:40.265Z,15
2017-02-01T07:31:51.887Z,15
2017-02-01T07:33:03.325Z,15
2017-02-01T07:34:14.723Z,20
2017-02-01T07:35:26.178Z,20
2017-02-01T07:36:37.585Z,20
2017-02-01T07:37:49.192Z,20
2017-02-01T07:39:00.597Z,20
2017-02-01T07:40:12.202Z,25
2017-02-01T07:41:23.853Z,25
2017-02-01T07:42:35.260Z,25
2017-02-01T07:43:46.670Z,30
2017-02-01T07:44:58.080Z,30
2017-02-01T07:46:09.690Z,30
2017-02-01T07:47:21.546Z,30
2017-02-01T07:48:33.154Z,35
2017-02-01T07:49:44.596Z,35
2017-02-01T07:50:55.993Z,35
2017-02-01T07:52:07.614Z,35
2017-02-01T07:53:19.071Z,35
2017-02-01T07:54:30.475Z,40
2017-02-01T07:55:41.879Z,40
2017-02-01T07:56:53.310Z,40
2017-02-01T07:58:04.921Z,45
2017-02-01T07:59:16.368Z,45
2017-02-01T08:00:27.776Z,45
2017-02-01T08:01:39.179Z,45
2017-02-01T08:02:50.789Z,45
2017-02-01T08:04:02.194Z,45
2017-02-01T08:05:13.660Z,45
2017-02-01T08:06:25.064Z,45
2017-02-01T08:07:36.473Z,45
2017-02-01T08:08:47.883Z,45
2017-02-01T08:09:59.291Z,45
2017-02-01T08:11:10.735Z,45
2017-02-01T08:12:22.141Z,45
2017-02-01T08:13:33.554Z,45
2017-02-01T08:14:44.961Z,50
2017-02-01T08:15:56.363Z,50
2017-02-01T08:17:07.819Z,50
2017-02-01T08:18:19.438Z,55
2017-02-01T08:19:30.839Z,55
2017-02-01T08:20:42.238Z,55
2017-02-01T08:21:53.638Z,55
2017-02-01T08:23:05.093Z,55
2017-02-01T08:24:16.692Z,55
2017-02-01T08:25:28.095Z,55
2017-02-01T08:26:39.512Z,55
2017-02-01T08:27:50.919Z,55
2017-02-01T08:29:02.375Z,55
2017-02-01T08:30:13.785Z,55
2017-02-01T08:31:25.203Z,55
2017-02-01T08:32:36.621Z,60
2017-02-01T08:33:48.034Z,60
2017-02-01T08:34:59.491Z,65
2017-02-01T08:36:11.108Z,60
2017-02-01T08:37:22.712Z,65
2017-02-01T08:38:34.117Z,65
2017-02-01T08:39:45.556Z,70
2017-02-01T08:40:57.012Z,70
2017-02-01T08:42:08.417Z,70
2017-02-01T08:43:19.828Z,75
2017-02-01T08:44:31.235Z,80
2017-02-01T08:45:42.643Z,80
2017-02-01T08:46:54.095Z,80
2017-02-01T08:48:05.500Z,80
2017-02-01T08:49:17.120Z,85
2017-02-01T08:50:28.526Z,90
2017-02-01T08:51:39.937Z,90
2017-02-01T08:52:51.394Z,90
2017-02-01T08:54:02.798Z,90
2017-02-01T08:55:14.204Z,95
2017-02-01T08:56:25.613Z,95
2017-02-01T08:57:37.216Z,105
2017-02-01T08:58:48.691Z,110
2017-02-01T09:00:00.099Z,110
2017-02-01T09:01:11.501Z,115
2017-02-01T09:02:22.913Z,115
2017-02-01T09:03:34.322Z,115
2017-02-01T09:04:45.981Z,115
2017-02-01T09:05:57.390Z,120
2017-02-01T09:07:08.807Z,115
2017-02-01T09:08:20.221Z,120
2017-02-01T09:09:31.620Z,120
2017-02-01T09:10:43.073Z,120
2017-02-01T09:11:54.485Z,120
2017-02-01T09:13:05.890Z,120
2017-02-01T09:14:17.493Z,120
2017-02-01T09:15:28.893Z,115
2017-02-01T09:16:40.552Z,115
2017-02-01T09:17:51.960Z,110
2017-02-01T09:19:03.578Z,110
2017-02-01T09:20:14.989Z,110
2017-02-01T09:21:26.402Z,120
2017-02-01T09:22:37.854Z,115
2017-02-01T09:23:49.278Z,120
2017-02-01T09:25:00.876Z,125
2017-02-01T09:26:12.284Z,130
2017-02-01T09:27:23.686Z,135
2017-02-01T09:28:35.137Z,135
2017-02-01T09:29:46.748Z,130
2017-02-01T09:30:58.161Z,130
2017-02-01T09:32:09.564Z,135
2017-02-01T09:33:20.975Z,135
2017-02-01T09:34:32.429Z,130
2017-02-01T09:35:43.833Z,135
2017-02-01T09:36:55.245Z,135
2017-02-01T09:38:06.656Z,130
2017-02-01T09:39:18.062Z,135
2017-02-01T09:40:29.523Z,140
2017-02-01T09:41:40.939Z,140
2017-02-01T09:42:52.348Z,150
2017-02-01T09:44:03.754Z,165
2017-02-01T09:45:15.155Z,180
2017-02-01T09:46:26.613Z,180
2017-02-01T09:47:38.231Z,180
2017-02-01T09:48:49.642Z,175
2017-02-01T09:50:01.050Z,175
2017-02-01T09:51:12.464Z,175
2017-02-01T09:52:23.923Z,190
2017-02-01T09:53:35.323Z,220
2017-02-01T09:54:46.729Z,235
2017-02-01T09:55:58.148Z,250
2017-02-01T09:57:09.554Z,245
2017-02-01T09:58:21.010Z,245
2017-02-01T09:59:32.415Z,250
2017-02-01T10:00:43.829Z,240
2017-02-01T10:01:55.244Z,250
2017-02-01T10:03:06.644Z,280
2017-02-01T10:04:18.304Z,295
2017-02-01T10:05:29.713Z,325
2017-02-01T10:06:41.126Z,365
2017-02-01T10:07:52.544Z,350
2017-02-01T10:09:03.944Z,345
2017-02-01T10:10:15.400Z,305
2017-02-01T10:11:26.815Z,290
2017-02-01T10:12:38.248Z,295
2017-02-01T10:13:49.662Z,310
2017-02-01T10:15:01.080Z,360
2017-02-01T10:16:12.741Z,340
2017-02-01T10:17:24.355Z,335
2017-02-01T10:18:35.768Z,390
2017-02-01T10:19:47.177Z,370
2017-02-01T10:20:58.785Z,345
2017-02-01T10:22:10.243Z,350
2017-02-01T10:23:21.653Z,315
2017-02-01T10:24:33.267Z,280
2017-02-01T10:25:44.675Z,280
2017-02-01T10:26:56.081Z,285
2017-02-01T10:28:07.545Z,305
2017-02-01T10:29:18.968Z,315
2017-02-01T10:30:30.382Z,290
2017-02-01T10:31:41.995Z,310
2017-02-01T10:32:53.401Z,320
2017-02-01T10:34:04.850Z,315
2017-02-01T10:35:16.255Z,290
2017-02-01T10:36:27.671Z,285
2017-02-01T10:37:39.087Z,290
2017-02-01T10:38:50.485Z,275
2017-02-01T10:40:01.933Z,250
2017-02-01T10:41:13.339Z,255
2017-02-01T10:42:24.766Z,245
2017-02-01T10:43:36.173Z,245
2017-02-01T10:44:47.582Z,245
2017-02-01T10:45:59.045Z,280
2017-02-01T10:47:10.451Z,310
2017-02-01T10:48:21.866Z,335
2017-02-01T10:49:33.271Z,345
2017-02-01T10:50:44.686Z,340
2017-02-01T10:51:56.148Z,355
2017-02-01T10:53:07.559Z,350
2017-02-01T10:54:18.973Z,360
2017-02-01T10:55:30.376Z,410
2017-02-01T10:56:41.789Z,425
2017-02-01T10:57:53.255Z,410
2017-02-01T10:59:04.662Z,400
2017-02-01T11:00:16.072Z,370
2017-02-01T11:01:27.483Z,340
2017-02-01T11:02:38.885Z,325
2017-02-01T11:03:50.339Z,310
2017-02-01T11:05:01.752Z,280
2017-02-01T11:06:13.158Z,265
2017-02-01T11:07:24.567Z,245
2017-02-01T11:08:36.185Z,245
2017-02-01T11:09:47.653Z,255
2017-02-01T11:10:59.072Z,235
2017-02-01T11:12:10.476Z,240
2017-02-01T11:13:21.881Z,245
2017-02-01T11:14:33.296Z,245
2017-02-01T11:15:44.744Z,240
2017-02-01T11:16:56.153Z,235
2017-02-01T11:18:07.556Z,250
2017-02-01T11:19:18.966Z,250
2017-02-01T11:20:30.378Z,260
2017-02-01T11:21:41.846Z,290
2017-02-01T11:22:53.253Z,330
2017-02-01T11:24:04.660Z,360
2017-02-01T11:25:16.063Z,365
2017-02-01T11:26:27.473Z,405
2017-02-01T11:27:38.958Z,640
2017-02-01T11:28:50.362Z,605
2017-02-01T11:30:01.788Z,580
2017-02-01T11:31:13.197Z,540
2017-02-01T11:32:24.602Z,515
2017-02-01T11:33:36.064Z,455
2017-02-01T11:34:47.679Z,420
2017-02-01T11:35:59.088Z,430
2017-02-01T11:37:10.498Z,440
2017-02-01T11:38:21.907Z,440
2017-02-01T11:39:33.390Z,445
2017-02-01T11:40:45.004Z,450
2017-02-01T11:41:56.430Z,465
2017-02-01T11:43:07.841Z,620
2017-02-01T11:44:19.252Z,755
2017-02-01T11:45:30.711Z,555
2017-02-01T11:46:42.113Z,595
2017-02-01T11:47:53.520Z,550
2017-02-01T11:49:04.929Z,595
2017-02-01T11:50:16.344Z,570
2017-02-01T11:51:27.809Z,925
2017-02-01T11:52:39.219Z,1000
2017-02-01T11:53:50.630Z,1085
2017-02-01T11:55:02.042Z,735
2017-02-01T11:56:13.454Z,770
2017-02-01T11:57:25.120Z,840
2017-02-01T11:58:36.530Z,835
2017-02-01T11:59:48.148Z,780
2017-02-01T12:00:59.764Z,655
2017-02-01T12:02:11.241Z,775
2017-02-01T12:03:22.708Z,575
2017-02-01T12:04:34.150Z,685
2017-02-01T12:05:45.563Z,630
2017-02-01T12:06:56.974Z,730
2017-02-01T12:08:08.382Z,930
2017-02-01T12:09:19.842Z,860
2017-02-01T12:10:31.252Z,840
2017-02-01T12:11:42.657Z,830
2017-02-01T12:12:54.071Z,890
2017-02-01T12:14:05.485Z,935
2017-02-01T12:15:16.950Z,845
2017-02-01T12:16:28.575Z,875
2017-02-01T12:17:40.185Z,725
2017-02-01T12:18:51.802Z,680
2017-02-01T12:20:03.220Z,835
2017-02-01T12:21:14.882Z,1020
2017-02-01T12:22:26.302Z,620
2017-02-01T12:23:37.706Z,505
2017-02-01T12:24:49.121Z,535
2017-02-01T12:26:00.544Z,485
2017-02-01T12:27:12.007Z,445
2017-02-01T12:28:23.415Z,900
2017-02-01T12:29:35.027Z,475
2017-02-01T12:30:46.441Z,775
2017-02-01T12:31:57.861Z,480
2017-02-01T12:33:09.523Z,705
2017-02-01T12:34:20.931Z,670
2017-02-01T12:35:32.370Z,900
2017-02-01T12:36:43.776Z,955
2017-02-01T12:37:55.194Z,860
2017-02-01T12:39:06.659Z,515
2017-02-01T12:40:18.268Z,785
2017-02-01T12:41:29.682Z,630
2017-02-01T12:42:41.079Z,745
2017-02-01T12:43:52.695Z,800
2017-02-01T12:45:04.159Z,725
2017-02-01T12:46:15.585Z,620
2017-02-01T12:47:27.198Z,605
2017-02-01T12:48:38.610Z,680
2017-02-01T12:49:50.533Z,645
2017-02-01T12:51:01.954Z,360
2017-02-01T12:52:13.366Z,520
2017-02-01T12:53:24.777Z,695
2017-02-01T12:54:36.191Z,580
2017-02-01T12:55:47.656Z,545
2017-02-01T12:56:59.063Z,590
2017-02-01T12:58:10.467Z,680
2017-02-01T12:59:21.884Z,725
2017-02-01T13:00:31.065Z,745
2017-02-01T13:01:42.721Z,685
2017-02-01T13:02:54.132Z,770
2017-02-01T13:04:05.817Z,690
2017-02-01T13:05:17.240Z,695
2017-02-01T13:06:28.642Z,695
2017-02-01T13:07:40.109Z,635
2017-02-01T13:08:51.523Z,570
2017-02-01T13:10:02.931Z,535
2017-02-01T13:11:14.334Z,325
2017-02-01T13:12:25.981Z,530
2017-02-01T13:13:37.442Z,520
2017-02-01T13:14:49.062Z,435
2017-02-01T13:16:00.467Z,550
2017-02-01T13:17:11.889Z,545
2017-02-01T13:18:23.303Z,465
2017-02-01T13:19:34.762Z,410
2017-02-01T13:20:46.372Z,495
2017-02-01T13:21:57.783Z,565
2017-02-01T13:23:09.390Z,610
2017-02-01T13:24:20.793Z,590
2017-02-01T13:25:32.446Z,545
2017-02-01T13:26:43.855Z,535
2017-02-01T13:27:55.268Z,555
2017-02-01T13:29:06.678Z,565
2017-02-01T13:30:18.089Z,575
2017-02-01T13:31:29.546Z,520
2017-02-01T13:32:40.957Z,435
2017-02-01T13:33:52.364Z,450
2017-02-01T13:35:03.767Z,435
2017-02-01T13:36:15.175Z,425
2017-02-01T13:37:26.635Z,470
2017-02-01T13:38:38.043Z,375
2017-02-01T13:39:49.453Z,350
2017-02-01T13:41:00.858Z,395
2017-02-01T13:42:12.261Z,375
2017-02-01T13:43:23.718Z,360
2017-02-01T13:44:35.321Z,320
2017-02-01T13:45:46.737Z,310
2017-02-01T13:46:58.148Z,305
2017-02-01T13:48:09.565Z,310
2017-02-01T13:49:21.019Z,315
2017-02-01T13:50:32.430Z,325
2017-02-01T13:51:43.838Z,300
2017-02-01T13:52:55.444Z,285
2017-02-01T13:54:06.858Z,280
2017-02-01T13:55:18.520Z,285
2017-02-01T13:56:29.932Z,285
2017-02-01T13:57:41.334Z,260
2017-02-01T13:58:52.752Z,225
2017-02-01T14:00:04.196Z,215
2017-02-01T14:01:15.656Z,215
2017-02-01T14:02:27.065Z,210
2017-02-01T14:03:38.475Z,220
2017-02-01T14:04:49.877Z,220
2017-02-01T14:06:01.487Z,215
2017-02-01T14:07:12.937Z,220
2017-02-01T14:08:24.349Z,215
2017-02-01T14:09:35.759Z,215
2017-02-01T14:10:47.200Z,225
2017-02-01T14:11:58.610Z,240
2017-02-01T14:13:10.066Z,235
2017-02-01T14:14:21.474Z,225
2017-02-01T14:15:32.879Z,235
2017-02-01T14:16:44.288Z,215
2017-02-01T14:17:55.701Z,200
2017-02-01T14:19:07.154Z,195
2017-02-01T14:20:18.560Z,175
2017-02-01T14:21:29.972Z,160
2017-02-01T14:22:41.375Z,155
2017-02-01T14:23:52.779Z,155
2017-02-01T14:25:04.225Z,155
2017-02-01T14:26:15.624Z,155
2017-02-01T14:27:27.029Z,155
2017-02-01T14:28:38.439Z,155
2017-02-01T14:29:49.844Z,145
2017-02-01T14:31:01.699Z,130
2017-02-01T14:32:13.107Z,125
2017-02-01T14:33:24.906Z,120
2017-02-01T14:34:36.315Z,120
2017-02-01T14:35:47.723Z,115
2017-02-01T14:36:59.408Z,115
2017-02-01T14:38:10.816Z,115
2017-02-01T14:39:22.216Z,115
2017-02-01T14:40:33.847Z,115
2017-02-01T14:41:45.457Z,110
2017-02-01T14:42:56.922Z,110
2017-02-01T14:44:08.320Z,105
2017-02-01T14:45:19.722Z,105
2017-02-01T14:46:31.125Z,105
2017-02-01T14:47:42.538Z,100
2017-02-01T14:48:53.995Z,105
2017-02-01T14:50:05.594Z,100
2017-02-01T14:51:16.999Z,100
2017-02-01T14:52:28.406Z,100
2017-02-01T14:53:39.816Z,100
2017-02-01T14:54:51.225Z,95
2017-02-01T14:56:02.625Z,95
2017-02-01T14:57:14.027Z,95
2017-02-01T14:58:25.431Z,95
2017-02-01T14:59:36.887Z,95
2017-02-01T15:00:48.491Z,90
2017-02-01T15:01:59.899Z,90
2017-02-01T15:03:11.301Z,90
2017-02-01T15:04:22.708Z,90
2017-02-01T15:05:34.363Z,85
2017-02-01T15:06:45.764Z,85
2017-02-01T15:07:57.172Z,85
2017-02-01T15:09:08.577Z,85
2017-02-01T15:10:19.984Z,85
2017-02-01T15:11:31.439Z,80
2017-02-01T15:12:42.847Z,80
2017-02-01T15:13:54.658Z,80
2017-02-01T15:15:06.058Z,80
2017-02-01T15:16:17.479Z,80
2017-02-01T15:17:28.925Z,75
2017-02-01T15:18:40.326Z,75
2017-02-01T15:19:51.744Z,75
2017-02-01T15:21:03.148Z,75
2017-02-01T15:22:14.554Z,70
2017-02-01T15:23:26.011Z,70
2017-02-01T15:24:37.417Z,70
2017-02-01T15:25:48.825Z,65
2017-02-01T15:27:00.221Z,70
2017-02-01T15:28:11.624Z,65
2017-02-01T15:29:23.075Z,60
2017-02-01T15:30:34.717Z,60
2017-02-01T15:31:46.316Z,60
2017-02-01T15:32:57.724Z,60
2017-02-01T15:34:09.125Z,60
2017-02-01T15:35:20.595Z,60
2017-02-01T15:36:32.001Z,55
2017-02-01T15:37:43.408Z,55
2017-02-01T15:38:54.799Z,55
2017-02-01T15:40:06.203Z,50
2017-02-01T15:41:17.652Z,50
2017-02-01T15:42:29.048Z,45
2017-02-01T15:43:40.456Z,45
2017-02-01T15:44:52.058Z,45
2017-02-01T15:46:03.456Z,40
2017-02-01T15:47:14.906Z,40
2017-02-01T15:48:26.323Z,40
2017-02-01T15:49:37.729Z,35
2017-02-01T15:50:49.129Z,35
2017-02-01T15:52:00.546Z,30
2017-02-01T15:53:12.008Z,30
2017-02-01T15:54:23.409Z,30
2017-02-01T15:55:34.811Z,25
2017-02-01T15:56:46.408Z,25
2017-02-01T15:57:58.007Z,25
2017-02-01T15:59:09.460Z,20
2017-02-01T16:00:20.873Z,20
2017-02-01T16:01:32.476Z,20
2017-02-01T16:02:43.872Z,15
2017-02-01T16:03:55.284Z,15
2017-02-01T16:05:06.743Z,15
2017-02-01T16:06:18.349Z,10
2017-02-01T16:07:29.968Z,10
2017-02-01T16:08:41.574Z,10
2017-02-01T16:09:52.982Z,10
2017-02-01T16:11:04.447Z,10
2017-02-01T16:12:15.851Z,10
2017-02-01T16:13:27.247Z,5
2017-02-01T16:14:38.653Z,5
2017-02-01T16:15:50.253Z,5
2017-02-01T16:17:01.907Z,5
2017-02-01T16:18:13.304Z,5
2017-02-01T16:19:24.713Z,5
2017-02-01T16:20:36.112Z,5
2017-02-01T16:21:47.518Z,0
2017-02-01T16:22:58.977Z,0
2017-02-01T16:24:10.378Z,0
2017-02-01T16:25:21.777Z,0
2017-02-01T16:26:33.178Z,0
2017-02-01T16:27:44.581Z,0
2017-02-01T16:28:56.032Z,0
2017-02-01T16:30:07.627Z,0
2017-02-01T16:31:19.230Z,0
2017-02-01T16:32:30.629Z,0
2017-02-01T16:33:42.036Z,0
2017-02-01T16:34:53.486Z,0
2017-02-01T16:36:04.883Z,0
2017-02-01T16:37:16.293Z,0
2017-02-01T16:38:27.895Z,0
2017-02-01T16:39:39.300Z,0
2017-02-01T16:40:50.747Z,0
2017-02-01T16:42:02.148Z,0
2017-02-01T16:43:13.751Z,0
2017-02-01T16:44:25.155Z,0
2017-02-01T16:45:36.550Z,0
2017-02-01T16:46:48.008Z,0
2017-02-01T16:47:59.418Z,0
2017-02-01T16:49:10.823Z,0
2017-02-01T16:50:22.424Z,0
2017-02-01T16:51:33.827Z,0
2017-02-01T16:52:45.284Z,0
2017-02-01T16:53:56.890Z,0
2017-02-01T16:55:08.296Z,0
2017-02-01T16:56:19.697Z,0
2017-02-01T16:57:31.105Z,0
2017-02-01T16:58:42.558Z,0
2017-02-01T16:59:53.963Z,0
2017-02-01T17:01:05.374Z,0
2017-02-01T17:02:16.769Z,0
2017-02-01T17:03:28.170Z,0